sensor_id;sensor_type;location;lat;lon;timestamp;pressure;altitude;pressure_sealevel;temperature;humidity
55540;BME280;41384;51.418;7.286;2023-08-12T00:01:02;100128.19;;;21.10;100.00
55540;BME280;41384;51.418;7.286;2023-08-12T00:03:28;100129.81;;;21.01;100.00
55540;BME280;41384;51.418;7.286;2023-08-12T00:05:53;100129.53;;;20.97;100.00
55540;BME280;41384;51.418;7.286;2023-08-12T00:08:19;100126.59;;;20.93;100.00
55540;BME280;41384;51.418;7.286;2023-08-12T00:10:44;100115.84;;;20.93;100.00
55540;BME280;41384;51.418;7.286;2023-08-12T00:13:10;100115.03;;;20.93;100.00
55540;BME280;41384;51.418;7.286;2023-08-12T00:15:35;100114.25;;;20.92;100.00
55540;BME280;41384;51.418;7.286;2023-08-12T00:18:00;100119.88;;;20.91;100.00
55540;BME280;41384;51.418;7.286;2023-08-12T00:20:26;100118.53;;;20.88;100.00
55540;BME280;41384;51.418;7.286;2023-08-12T00:22:51;100116.41;;;20.85;100.00
55540;BME280;41384;51.418;7.286;2023-08-12T00:25:17;100110.50;;;20.88;100.00
55540;BME280;41384;51.418;7.286;2023-08-12T00:27:42;100112.34;;;20.93;100.00
55540;BME280;41384;51.418;7.286;2023-08-12T00:30:07;100107.28;;;20.91;100.00
55540;BME280;41384;51.418;7.286;2023-08-12T00:32:34;100113.19;;;20.88;100.00
55540;BME280;41384;51.418;7.286;2023-08-12T00:34:59;100106.19;;;20.87;100.00
55540;BME280;41384;51.418;7.286;2023-08-12T00:37:24;100096.00;;;20.84;100.00
55540;BME280;41384;51.418;7.286;2023-08-12T00:39:50;100092.25;;;20.80;100.00
55540;BME280;41384;51.418;7.286;2023-08-12T00:42:15;100093.31;;;20.79;100.00
55540;BME280;41384;51.418;7.286;2023-08-12T00:44:40;100091.69;;;20.78;100.00
55540;BME280;41384;51.418;7.286;2023-08-12T00:47:05;100085.53;;;20.82;100.00
55540;BME280;41384;51.418;7.286;2023-08-12T00:49:31;100085.28;;;20.84;100.00
55540;BME280;41384;51.418;7.286;2023-08-12T00:51:57;100091.69;;;20.78;100.00
55540;BME280;41384;51.418;7.286;2023-08-12T00:54:24;100086.81;;;20.75;100.00
55540;BME280;41384;51.418;7.286;2023-08-12T00:56:52;100088.72;;;20.74;100.00
55540;BME280;41384;51.418;7.286;2023-08-12T00:59:19;100079.09;;;20.83;100.00
55540;BME280;41384;51.418;7.286;2023-08-12T01:01:46;100074.81;;;20.82;100.00
55540;BME280;41384;51.418;7.286;2023-08-12T01:04:12;100076.94;;;20.80;100.00
55540;BME280;41384;51.418;7.286;2023-08-12T01:06:37;100083.06;;;20.76;100.00
55540;BME280;41384;51.418;7.286;2023-08-12T01:09:04;100078.03;;;20.79;100.00
55540;BME280;41384;51.418;7.286;2023-08-12T01:11:55;100071.88;;;20.79;100.00
55540;BME280;41384;51.418;7.286;2023-08-12T01:17:00;100082.06;;;20.87;100.00
55540;BME280;41384;51.418;7.286;2023-08-12T01:19:29;100083.13;;;20.86;100.00
55540;BME280;41384;51.418;7.286;2023-08-12T01:21:59;100086.88;;;20.85;100.00
55540;BME280;41384;51.418;7.286;2023-08-12T01:24:26;100079.09;;;20.83;100.00
55540;BME280;41384;51.418;7.286;2023-08-12T01:26:51;100078.03;;;20.79;100.00
55540;BME280;41384;51.418;7.286;2023-08-12T01:29:17;100075.88;;;20.81;100.00
55540;BME280;41384;51.418;7.286;2023-08-12T01:31:48;100067.56;;;20.83;100.00
55540;BME280;41384;51.418;7.286;2023-08-12T01:34:26;100066.22;;;20.80;100.00
55540;BME280;41384;51.418;7.286;2023-08-12T01:36:58;100063.28;;;20.82;100.00
55540;BME280;41384;51.418;7.286;2023-08-12T01:39:25;100052.53;;;20.77;100.00
55540;BME280;41384;51.418;7.286;2023-08-12T01:41:52;100053.84;;;20.74;100.00
55540;BME280;41384;51.418;7.286;2023-08-12T01:44:18;100043.97;;;20.80;100.00
55540;BME280;41384;51.418;7.286;2023-08-12T01:46:44;100047.16;;;20.77;100.00
55540;BME280;41384;51.418;7.286;2023-08-12T01:49:09;100043.38;;;20.73;100.00
55540;BME280;41384;51.418;7.286;2023-08-12T01:51:34;100045.53;;;20.65;100.00
55540;BME280;41384;51.418;7.286;2023-08-12T01:54:00;100046.59;;;20.69;100.00
55540;BME280;41384;51.418;7.286;2023-08-12T01:56:25;100043.38;;;20.67;100.00
55540;BME280;41384;51.418;7.286;2023-08-12T01:58:50;100044.97;;;20.74;100.00
55540;BME280;41384;51.418;7.286;2023-08-12T02:01:15;100048.75;;;20.73;100.00
55540;BME280;41384;51.418;7.286;2023-08-12T02:03:41;100046.06;;;20.73;100.00
55540;BME280;41384;51.418;7.286;2023-08-12T02:06:06;100042.31;;;20.68;100.00
55540;BME280;41384;51.418;7.286;2023-08-12T02:08:31;100040.44;;;20.64;100.00
55540;BME280;41384;51.418;7.286;2023-08-12T02:10:56;100033.19;;;20.59;100.00
55540;BME280;41384;51.418;7.286;2023-08-12T02:13:22;100031.56;;;20.58;100.00
55540;BME280;41384;51.418;7.286;2023-08-12T02:15:47;100039.91;;;20.62;100.00
55540;BME280;41384;51.418;7.286;2023-08-12T02:18:12;100034.78;;;20.60;100.00
55540;BME280;41384;51.418;7.286;2023-08-12T02:20:40;100031.56;;;20.58;100.00
55540;BME280;41384;51.418;7.286;2023-08-12T02:23:05;100032.13;;;20.60;100.00
55540;BME280;41384;51.418;7.286;2023-08-12T02:25:31;100025.16;;;20.64;100.00
55540;BME280;41384;51.418;7.286;2023-08-12T02:27:56;100021.94;;;20.62;100.00
55540;BME280;41384;51.418;7.286;2023-08-12T02:30:21;100017.38;;;20.63;100.00
55540;BME280;41384;51.418;7.286;2023-08-12T02:32:47;100013.34;;;20.65;100.00
55540;BME280;41384;51.418;7.286;2023-08-12T02:35:12;100005.03;;;20.62;100.00
55540;BME280;41384;51.418;7.286;2023-08-12T02:37:37;100005.84;;;20.57;100.00
55540;BME280;41384;51.418;7.286;2023-08-12T02:40:04;100001.00;;;20.59;100.00
55540;BME280;41384;51.418;7.286;2023-08-12T02:42:30;100001.28;;;20.58;100.00
55540;BME280;41384;51.418;7.286;2023-08-12T02:44:55;99999.69;;;20.62;100.00
55540;BME280;41384;51.418;7.286;2023-08-12T02:47:21;99996.72;;;20.53;100.00
55540;BME280;41384;51.418;7.286;2023-08-12T02:49:47;99999.69;;;20.56;100.00
55540;BME280;41384;51.418;7.286;2023-08-12T02:52:12;99998.63;;;20.52;100.00
55540;BME280;41384;51.418;7.286;2023-08-12T02:54:38;100003.44;;;20.55;100.00
55540;BME280;41384;51.418;7.286;2023-08-12T02:57:03;99998.34;;;20.59;100.00
55540;BME280;41384;51.418;7.286;2023-08-12T02:59:28;100001.28;;;20.63;100.00
55540;BME280;41384;51.418;7.286;2023-08-12T03:01:55;99998.63;;;20.63;100.00
55540;BME280;41384;51.418;7.286;2023-08-12T03:04:20;99990.28;;;20.54;100.00
55540;BME280;41384;51.418;7.286;2023-08-12T03:06:46;99994.03;;;20.63;100.00
55540;BME280;41384;51.418;7.286;2023-08-12T03:09:11;99992.97;;;20.69;100.00
55540;BME280;41384;51.418;7.286;2023-08-12T03:11:36;99983.06;;;20.65;100.00
55540;BME280;41384;51.418;7.286;2023-08-12T03:14:01;99987.59;;;20.64;100.00
55540;BME280;41384;51.418;7.286;2023-08-12T03:16:27;99982.53;;;20.63;100.00
55540;BME280;41384;51.418;7.286;2023-08-12T03:18:52;99985.75;;;20.60;100.00
55540;BME280;41384;51.418;7.286;2023-08-12T03:21:18;99976.34;;;20.62;100.00
55540;BME280;41384;51.418;7.286;2023-08-12T03:23:43;99966.16;;;20.59;100.00
55540;BME280;41384;51.418;7.286;2023-08-12T03:26:08;99971.81;;;20.58;100.00
55540;BME280;41384;51.418;7.286;2023-08-12T03:28:34;99964.28;;;20.54;100.00
55540;BME280;41384;51.418;7.286;2023-08-12T03:31:00;99966.16;;;20.54;100.00
55540;BME280;41384;51.418;7.286;2023-08-12T03:33:25;99969.91;;;20.48;100.00
55540;BME280;41384;51.418;7.286;2023-08-12T03:35:50;99956.25;;;20.44;100.00
55540;BME280;41384;51.418;7.286;2023-08-12T03:38:16;99959.47;;;20.46;100.00
55540;BME280;41384;51.418;7.286;2023-08-12T03:40:42;99958.13;;;20.44;100.00
55540;BME280;41384;51.418;7.286;2023-08-12T03:43:08;99964.84;;;20.41;100.00
55540;BME280;41384;51.418;7.286;2023-08-12T03:45:43;99957.59;;;20.47;100.00
55540;BME280;41384;51.418;7.286;2023-08-12T03:48:09;99951.69;;;20.50;100.00
55540;BME280;41384;51.418;7.286;2023-08-12T03:50:38;99944.72;;;20.44;100.00
55540;BME280;41384;51.418;7.286;2023-08-12T03:53:04;99943.09;;;20.48;100.00
55540;BME280;41384;51.418;7.286;2023-08-12T03:55:30;99940.16;;;20.49;100.00
55540;BME280;41384;51.418;7.286;2023-08-12T03:57:57;99923.81;;;20.51;100.00
55540;BME280;41384;51.418;7.286;2023-08-12T04:00:22;99930.50;;;20.53;100.00
55540;BME280;41384;51.418;7.286;2023-08-12T04:02:47;99925.94;;;20.49;100.00
55540;BME280;41384;51.418;7.286;2023-08-12T04:05:13;99933.44;;;20.47;100.00
55540;BME280;41384;51.418;7.286;2023-08-12T04:07:38;99939.63;;;20.42;100.00
55540;BME280;41384;51.418;7.286;2023-08-12T04:10:04;99936.44;;;20.40;100.00
55540;BME280;41384;51.418;7.286;2023-08-12T04:12:29;99938.28;;;20.39;100.00
55540;BME280;41384;51.418;7.286;2023-08-12T04:14:54;99930.53;;;20.43;100.00
55540;BME280;41384;51.418;7.286;2023-08-12T04:17:20;99917.91;;;20.44;100.00
55540;BME280;41384;51.418;7.286;2023-08-12T04:19:46;99930.00;;;20.41;100.00
55540;BME280;41384;51.418;7.286;2023-08-12T04:22:11;99923.28;;;20.38;100.00
55540;BME280;41384;51.418;7.286;2023-08-12T04:24:37;99921.13;;;20.35;100.00
55540;BME280;41384;51.418;7.286;2023-08-12T04:27:02;99916.06;;;20.34;100.00
55540;BME280;41384;51.418;7.286;2023-08-12T04:29:27;99906.41;;;20.38;100.00
55540;BME280;41384;51.418;7.286;2023-08-12T04:31:53;99902.38;;;20.35;100.00
55540;BME280;41384;51.418;7.286;2023-08-12T04:34:18;99899.69;;;20.40;100.00
55540;BME280;41384;51.418;7.286;2023-08-12T04:36:43;99902.38;;;20.40;100.00
55540;BME280;41384;51.418;7.286;2023-08-12T04:39:09;99897.00;;;20.35;100.00
55540;BME280;41384;51.418;7.286;2023-08-12T04:41:35;99887.88;;;20.41;100.00
55540;BME280;41384;51.418;7.286;2023-08-12T04:44:00;99883.88;;;20.44;100.00
55540;BME280;41384;51.418;7.286;2023-08-12T04:46:26;99876.63;;;20.45;100.00
55540;BME280;41384;51.418;7.286;2023-08-12T04:48:51;99881.72;;;20.46;100.00
55540;BME280;41384;51.418;7.286;2023-08-12T04:51:17;99886.81;;;20.42;100.00
55540;BME280;41384;51.418;7.286;2023-08-12T04:53:42;99884.16;;;20.37;100.00
55540;BME280;41384;51.418;7.286;2023-08-12T04:56:07;99887.34;;;20.39;100.00
55540;BME280;41384;51.418;7.286;2023-08-12T04:58:33;99876.63;;;20.39;100.00
55540;BME280;41384;51.418;7.286;2023-08-12T05:00:58;99873.69;;;20.41;100.00
55540;BME280;41384;51.418;7.286;2023-08-12T05:03:23;99869.41;;;20.45;100.00
55540;BME280;41384;51.418;7.286;2023-08-12T05:05:52;99862.69;;;20.48;100.00
55540;BME280;41384;51.418;7.286;2023-08-12T05:08:18;99875.28;;;20.52;100.00
55540;BME280;41384;51.418;7.286;2023-08-12T05:10:43;99870.19;;;20.40;100.00
55540;BME280;41384;51.418;7.286;2023-08-12T05:13:08;99864.84;;;20.35;100.00
55540;BME280;41384;51.418;7.286;2023-08-12T05:15:33;99861.63;;;20.38;100.00
55540;BME280;41384;51.418;7.286;2023-08-12T05:18:01;99864.59;;;20.37;100.00
55540;BME280;41384;51.418;7.286;2023-08-12T05:20:27;99869.13;;;20.36;100.00
55540;BME280;41384;51.418;7.286;2023-08-12T05:22:53;99867.53;;;20.35;100.00
55540;BME280;41384;51.418;7.286;2023-08-12T05:25:18;99864.31;;;20.33;100.00
55540;BME280;41384;51.418;7.286;2023-08-12T05:27:43;99862.16;;;20.40;100.00
55540;BME280;41384;51.418;7.286;2023-08-12T05:30:09;99862.97;;;20.46;100.00
55540;BME280;41384;51.418;7.286;2023-08-12T05:32:34;99859.75;;;20.49;100.00
55540;BME280;41384;51.418;7.286;2023-08-12T05:35:00;99859.19;;;20.52;100.00
55540;BME280;41384;51.418;7.286;2023-08-12T05:37:25;99856.78;;;20.51;100.00
55540;BME280;41384;51.418;7.286;2023-08-12T05:39:50;99854.09;;;20.51;100.00
55540;BME280;41384;51.418;7.286;2023-08-12T05:42:15;99860.00;;;20.53;100.00
55540;BME280;41384;51.418;7.286;2023-08-12T05:44:41;99857.31;;;20.48;100.00
55540;BME280;41384;51.418;7.286;2023-08-12T05:47:07;99856.53;;;20.42;100.00
55540;BME280;41384;51.418;7.286;2023-08-12T05:49:32;99853.03;;;20.47;100.00
55540;BME280;41384;51.418;7.286;2023-08-12T05:51:58;99856.78;;;20.46;100.00
55540;BME280;41384;51.418;7.286;2023-08-12T05:54:23;99860.00;;;20.42;100.00
55540;BME280;41384;51.418;7.286;2023-08-12T05:56:48;99856.78;;;20.51;100.00
55540;BME280;41384;51.418;7.286;2023-08-12T05:59:13;99865.09;;;20.54;100.00
55540;BME280;41384;51.418;7.286;2023-08-12T06:01:39;99864.00;;;20.55;100.00
55540;BME280;41384;51.418;7.286;2023-08-12T06:04:04;99856.25;;;20.49;100.00
55540;BME280;41384;51.418;7.286;2023-08-12T06:06:29;99858.69;;;20.45;100.00
55540;BME280;41384;51.418;7.286;2023-08-12T06:08:55;99854.38;;;20.29;100.00
55540;BME280;41384;51.418;7.286;2023-08-12T06:11:20;99851.97;;;20.37;100.00
55540;BME280;41384;51.418;7.286;2023-08-12T06:13:45;99856.03;;;20.35;100.00
55540;BME280;41384;51.418;7.286;2023-08-12T06:16:11;99857.09;;;20.39;100.00
55540;BME280;41384;51.418;7.286;2023-08-12T06:18:36;99853.34;;;20.35;100.00
55540;BME280;41384;51.418;7.286;2023-08-12T06:21:01;99855.75;;;20.21;100.00
55540;BME280;41384;51.418;7.286;2023-08-12T06:23:26;99849.88;;;20.08;100.00
55540;BME280;41384;51.418;7.286;2023-08-12T06:25:52;99849.59;;;20.10;100.00
55540;BME280;41384;51.418;7.286;2023-08-12T06:28:17;99851.47;;;20.09;100.00
55540;BME280;41384;51.418;7.286;2023-08-12T06:30:45;99854.41;;;20.08;100.00
55540;BME280;41384;51.418;7.286;2023-08-12T06:33:13;99851.19;;;20.11;100.00
55540;BME280;41384;51.418;7.286;2023-08-12T06:35:38;99854.16;;;20.09;100.00
55540;BME280;41384;51.418;7.286;2023-08-12T06:38:05;99855.47;;;20.12;100.00
55540;BME280;41384;51.418;7.286;2023-08-12T06:40:30;99847.97;;;20.14;100.00
55540;BME280;41384;51.418;7.286;2023-08-12T06:42:56;99843.16;;;20.11;100.00
55540;BME280;41384;51.418;7.286;2023-08-12T06:45:21;99845.06;;;20.05;100.00
55540;BME280;41384;51.418;7.286;2023-08-12T06:47:46;99841.31;;;20.01;100.00
55540;BME280;41384;51.418;7.286;2023-08-12T06:50:12;99835.41;;;19.99;100.00
55540;BME280;41384;51.418;7.286;2023-08-12T06:52:37;99837.56;;;19.97;100.00
55540;BME280;41384;51.418;7.286;2023-08-12T06:55:02;99823.63;;;19.90;100.00
55540;BME280;41384;51.418;7.286;2023-08-12T06:57:27;99827.84;;;19.80;100.00
55540;BME280;41384;51.418;7.286;2023-08-12T06:59:53;99828.69;;;19.81;100.00
55540;BME280;41384;51.418;7.286;2023-08-12T07:02:18;99829.47;;;19.76;100.00
55540;BME280;41384;51.418;7.286;2023-08-12T07:04:43;99815.81;;;19.78;100.00
55540;BME280;41384;51.418;7.286;2023-08-12T07:07:09;99812.34;;;19.72;100.00
55540;BME280;41384;51.418;7.286;2023-08-12T07:09:34;99805.38;;;19.66;100.00
55540;BME280;41384;51.418;7.286;2023-08-12T07:11:59;99806.97;;;19.72;100.00
55540;BME280;41384;51.418;7.286;2023-08-12T07:14:26;99793.34;;;19.68;100.00
55540;BME280;41384;51.418;7.286;2023-08-12T07:16:53;99791.44;;;19.69;100.00
55540;BME280;41384;51.418;7.286;2023-08-12T07:19:18;99791.44;;;19.69;100.00
55540;BME280;41384;51.418;7.286;2023-08-12T07:21:43;99798.16;;;19.72;100.00
55540;BME280;41384;51.418;7.286;2023-08-12T07:24:09;99781.81;;;19.68;100.00
55540;BME280;41384;51.418;7.286;2023-08-12T07:26:34;99781.81;;;19.68;100.00
55540;BME280;41384;51.418;7.286;2023-08-12T07:28:59;99785.56;;;19.72;100.00
55540;BME280;41384;51.418;7.286;2023-08-12T07:31:24;99799.47;;;19.84;100.00
55540;BME280;41384;51.418;7.286;2023-08-12T07:33:50;99804.88;;;19.95;100.00
55540;BME280;41384;51.418;7.286;2023-08-12T07:36:15;99813.47;;;19.92;100.00
55540;BME280;41384;51.418;7.286;2023-08-12T07:38:40;99805.41;;;19.92;100.00
55540;BME280;41384;51.418;7.286;2023-08-12T07:41:06;99806.97;;;19.88;100.00
55540;BME280;41384;51.418;7.286;2023-08-12T07:43:31;99821.75;;;19.95;100.00
55540;BME280;41384;51.418;7.286;2023-08-12T07:45:56;99804.34;;;20.03;100.00
55540;BME280;41384;51.418;7.286;2023-08-12T07:48:21;99822.78;;;20.25;100.00
55540;BME280;41384;51.418;7.286;2023-08-12T07:50:47;99823.06;;;20.24;100.00
55540;BME280;41384;51.418;7.286;2023-08-12T07:53:20;99813.94;;;20.25;100.00
55540;BME280;41384;51.418;7.286;2023-08-12T07:55:45;99802.94;;;20.26;100.00
55540;BME280;41384;51.418;7.286;2023-08-12T07:58:10;99804.78;;;20.41;100.00
55540;BME280;41384;51.418;7.286;2023-08-12T08:00:35;99793.53;;;20.39;100.00
55540;BME280;41384;51.418;7.286;2023-08-12T08:03:01;99790.59;;;20.41;100.00
55540;BME280;41384;51.418;7.286;2023-08-12T08:05:26;99796.19;;;20.50;100.00
55540;BME280;41384;51.418;7.286;2023-08-12T08:07:51;99791.84;;;20.64;100.00
55540;BME280;41384;51.418;7.286;2023-08-12T08:10:17;99791.31;;;20.62;100.00
55540;BME280;41384;51.418;7.286;2023-08-12T08:12:42;99798.28;;;20.63;100.00
55540;BME280;41384;51.418;7.286;2023-08-12T08:15:07;99791.28;;;20.73;100.00
55540;BME280;41384;51.418;7.286;2023-08-12T08:17:33;99799.34;;;20.83;100.00
55540;BME280;41384;51.418;7.286;2023-08-12T08:19:59;99810.03;;;20.88;100.00
55540;BME280;41384;51.418;7.286;2023-08-12T08:22:24;99802.53;;;20.90;100.00
55540;BME280;41384;51.418;7.286;2023-08-12T08:24:49;99812.41;;;20.95;100.00
55540;BME280;41384;51.418;7.286;2023-08-12T08:27:14;99809.69;;;21.00;100.00
55540;BME280;41384;51.418;7.286;2023-08-12T08:29:40;99816.38;;;21.08;100.00
55540;BME280;41384;51.418;7.286;2023-08-12T08:32:06;99816.41;;;21.03;100.00
55540;BME280;41384;51.418;7.286;2023-08-12T08:34:31;99808.59;;;21.06;100.00
55540;BME280;41384;51.418;7.286;2023-08-12T08:36:56;99806.44;;;21.08;100.00
55540;BME280;41384;51.418;7.286;2023-08-12T08:39:21;99801.38;;;21.02;100.00
55540;BME280;41384;51.418;7.286;2023-08-12T08:41:48;99806.00;;;20.91;100.00
55540;BME280;41384;51.418;7.286;2023-08-12T08:44:14;99807.34;;;20.88;100.00
55540;BME280;41384;51.418;7.286;2023-08-12T08:46:41;99806.50;;;20.93;100.00
55540;BME280;41384;51.418;7.286;2023-08-12T08:49:07;99807.31;;;20.98;100.00
55540;BME280;41384;51.418;7.286;2023-08-12T08:51:34;99807.84;;;21.01;100.00
55540;BME280;41384;51.418;7.286;2023-08-12T08:54:02;99808.59;;;21.06;100.00
55540;BME280;41384;51.418;7.286;2023-08-12T08:56:28;99801.63;;;21.05;100.00
55540;BME280;41384;51.418;7.286;2023-08-12T08:58:53;99801.09;;;21.03;100.00
55540;BME280;41384;51.418;7.286;2023-08-12T09:01:20;99804.34;;;21.00;100.00
55540;BME280;41384;51.418;7.286;2023-08-12T09:03:47;99811.31;;;20.96;100.00
55540;BME280;41384;51.418;7.286;2023-08-12T09:06:16;99812.44;;;20.90;100.00
55540;BME280;41384;51.418;7.286;2023-08-12T09:08:45;99817.50;;;20.96;100.00
55540;BME280;41384;51.418;7.286;2023-08-12T09:11:13;99813.97;;;21.01;100.00
55540;BME280;41384;51.418;7.286;2023-08-12T09:13:39;99815.81;;;21.11;100.00
55540;BME280;41384;51.418;7.286;2023-08-12T09:16:04;99813.91;;;21.22;100.00
55540;BME280;41384;51.418;7.286;2023-08-12T09:18:30;99817.41;;;21.17;100.00
55540;BME280;41384;51.418;7.286;2023-08-12T09:20:56;99816.31;;;21.18;100.00
55540;BME280;41384;51.418;7.286;2023-08-12T09:23:22;99811.19;;;21.27;100.00
55540;BME280;41384;51.418;7.286;2023-08-12T09:25:47;99817.06;;;21.29;100.00
55540;BME280;41384;51.418;7.286;2023-08-12T09:28:13;99817.94;;;21.19;100.00
55540;BME280;41384;51.418;7.286;2023-08-12T09:30:39;99818.19;;;21.23;100.00
55540;BME280;41384;51.418;7.286;2023-08-12T09:33:06;99809.81;;;21.29;100.00
55540;BME280;41384;51.418;7.286;2023-08-12T09:35:40;99808.69;;;21.36;100.00
55540;BME280;41384;51.418;7.286;2023-08-12T09:38:07;99804.94;;;21.37;100.00
55540;BME280;41384;51.418;7.286;2023-08-12T09:40:34;99802.22;;;21.42;100.00
55540;BME280;41384;51.418;7.286;2023-08-12T09:43:00;99801.69;;;21.40;100.00
55540;BME280;41384;51.418;7.286;2023-08-12T09:45:26;99798.97;;;21.45;100.00
55540;BME280;41384;51.418;7.286;2023-08-12T09:47:52;99796.09;;;21.36;100.00
55540;BME280;41384;51.418;7.286;2023-08-12T09:50:21;99796.63;;;21.38;100.00
55540;BME280;41384;51.418;7.286;2023-08-12T09:52:46;99800.94;;;21.34;100.00
55540;BME280;41384;51.418;7.286;2023-08-12T09:55:15;99804.94;;;21.37;100.00
55540;BME280;41384;51.418;7.286;2023-08-12T09:57:42;99810.56;;;21.40;100.00
55540;BME280;41384;51.418;7.286;2023-08-12T10:00:09;99805.16;;;21.46;100.00
55540;BME280;41384;51.418;7.286;2023-08-12T10:02:40;99811.28;;;21.51;100.00
55540;BME280;41384;51.418;7.286;2023-08-12T10:05:08;99814.69;;;21.62;100.00
55540;BME280;41384;51.418;7.286;2023-08-12T10:07:36;99811.22;;;21.67;100.00
55540;BME280;41384;51.418;7.286;2023-08-12T10:10:01;99810.97;;;21.63;100.00
55540;BME280;41384;51.418;7.286;2023-08-12T10:12:27;99814.97;;;21.66;100.00
55540;BME280;41384;51.418;7.286;2023-08-12T10:14:53;99810.16;;;21.57;100.00
55540;BME280;41384;51.418;7.286;2023-08-12T10:17:19;99819.28;;;21.56;100.00
55540;BME280;41384;51.418;7.286;2023-08-12T10:19:45;99817.13;;;21.58;100.00
55540;BME280;41384;51.418;7.286;2023-08-12T10:22:11;99819.84;;;21.53;100.00
55540;BME280;41384;51.418;7.286;2023-08-12T10:24:38;99823.56;;;21.68;100.00
55540;BME280;41384;51.418;7.286;2023-08-12T10:27:05;99826.91;;;21.84;100.00
55540;BME280;41384;51.418;7.286;2023-08-12T10:29:30;99819.38;;;21.86;100.00
55540;BME280;41384;51.418;7.286;2023-08-12T10:31:56;99823.94;;;21.85;100.00
55540;BME280;41384;51.418;7.286;2023-08-12T10:34:23;99821.50;;;21.89;100.00
55540;BME280;41384;51.418;7.286;2023-08-12T10:36:54;99813.16;;;21.91;100.00
55540;BME280;41384;51.418;7.286;2023-08-12T10:39:24;99803.41;;;22.00;100.00
55540;BME280;41384;51.418;7.286;2023-08-12T10:41:50;99806.34;;;21.98;100.00
55540;BME280;41384;51.418;7.286;2023-08-12T10:44:19;99803.16;;;21.96;100.00
55540;BME280;41384;51.418;7.286;2023-08-12T10:46:55;99802.94;;;21.93;100.00
55540;BME280;41384;51.418;7.286;2023-08-12T10:49:21;99799.94;;;21.94;100.00
55540;BME280;41384;51.418;7.286;2023-08-12T10:51:51;99797.97;;;22.05;100.00
55540;BME280;41384;51.418;7.286;2023-08-12T10:54:21;99804.28;;;22.20;100.00
55540;BME280;41384;51.418;7.286;2023-08-12T11:05:00;99784.31;;;22.55;100.00
55540;BME280;41384;51.418;7.286;2023-08-12T11:07:32;99782.19;;;22.77;100.00
55540;BME280;41384;51.418;7.286;2023-08-12T11:10:00;99770.47;;;22.86;100.00
55540;BME280;41384;51.418;7.286;2023-08-12T11:12:34;99785.81;;;22.86;100.00
55540;BME280;41384;51.418;7.286;2023-08-12T11:15:00;99775.41;;;22.79;100.00
55540;BME280;41384;51.418;7.286;2023-08-12T11:17:40;99777.19;;;22.65;100.00
55540;BME280;41384;51.418;7.286;2023-08-12T11:20:08;99773.59;;;22.50;100.00
55540;BME280;41384;51.418;7.286;2023-08-12T11:22:42;99778.06;;;22.36;100.00
55540;BME280;41384;51.418;7.286;2023-08-12T11:25:10;99777.13;;;22.21;100.00
55540;BME280;41384;51.418;7.286;2023-08-12T11:27:46;99778.03;;;22.11;100.00
55540;BME280;41384;51.418;7.286;2023-08-12T11:30:16;99775.28;;;22.16;100.00
55540;BME280;41384;51.418;7.286;2023-08-12T11:32:46;99772.00;;;21.95;100.00
55540;BME280;41384;51.418;7.286;2023-08-12T11:35:13;99776.84;;;21.93;100.00
55540;BME280;41384;51.418;7.286;2023-08-12T11:37:40;99776.94;;;21.83;100.00
55540;BME280;41384;51.418;7.286;2023-08-12T11:40:07;99790.91;;;21.85;100.00
55540;BME280;41384;51.418;7.286;2023-08-12T11:42:39;99793.50;;;21.66;100.00
55540;BME280;41384;51.418;7.286;2023-08-12T11:45:05;99787.66;;;21.48;100.00
55540;BME280;41384;51.418;7.286;2023-08-12T11:47:32;99785.88;;;21.38;100.00
55540;BME280;41384;51.418;7.286;2023-08-12T11:49:57;99788.81;;;21.37;100.00
55540;BME280;41384;51.418;7.286;2023-08-12T11:52:23;99795.28;;;21.36;100.00
55540;BME280;41384;51.418;7.286;2023-08-12T11:54:49;99785.31;;;21.41;100.00
55540;BME280;41384;51.418;7.286;2023-08-12T11:57:15;99790.13;;;21.45;100.00
55540;BME280;41384;51.418;7.286;2023-08-12T11:59:41;99791.69;;;21.51;100.00
55540;BME280;41384;51.418;7.286;2023-08-12T12:02:06;99790.88;;;21.50;100.00
55540;BME280;41384;51.418;7.286;2023-08-12T12:04:32;99797.25;;;21.60;100.00
55540;BME280;41384;51.418;7.286;2023-08-12T12:06:57;99799.66;;;21.66;100.00
55540;BME280;41384;51.418;7.286;2023-08-12T12:09:23;99792.38;;;21.72;100.00
55540;BME280;41384;51.418;7.286;2023-08-12T12:11:52;99801.78;;;21.69;100.00
55540;BME280;41384;51.418;7.286;2023-08-12T12:14:18;99791.88;;;21.60;100.00
55540;BME280;41384;51.418;7.286;2023-08-12T12:16:47;99793.38;;;21.81;100.00
55540;BME280;41384;51.418;7.286;2023-08-12T12:19:23;99782.63;;;22.11;100.00
55540;BME280;41384;51.418;7.286;2023-08-12T12:21:52;99777.00;;;22.07;100.00
55540;BME280;41384;51.418;7.286;2023-08-12T12:24:19;99775.06;;;22.13;100.00
55540;BME280;41384;51.418;7.286;2023-08-12T12:26:45;99769.91;;;22.16;100.00
55540;BME280;41384;51.418;7.286;2023-08-12T12:29:12;99763.28;;;22.33;100.00
55540;BME280;41384;51.418;7.286;2023-08-12T12:31:38;99758.44;;;22.59;100.00
55540;BME280;41384;51.418;7.286;2023-08-12T12:34:04;99766.59;;;22.73;100.00
55540;BME280;41384;51.418;7.286;2023-08-12T12:36:37;99763.47;;;22.85;100.00
55540;BME280;41384;51.418;7.286;2023-08-12T12:39:03;99762.91;;;22.88;100.00
55540;BME280;41384;51.418;7.286;2023-08-12T12:41:29;99764.94;;;22.97;100.00
55540;BME280;41384;51.418;7.286;2023-08-12T12:43:54;99769.38;;;23.07;100.00
55540;BME280;41384;51.418;7.286;2023-08-12T12:46:20;99772.59;;;23.09;100.00
55540;BME280;41384;51.418;7.286;2023-08-12T12:48:45;99773.41;;;23.09;100.00
55540;BME280;41384;51.418;7.286;2023-08-12T12:51:12;99764.31;;;23.24;100.00
55540;BME280;41384;51.418;7.286;2023-08-12T12:53:37;99763.25;;;23.20;100.00